createdAt,value
2019-02-27T17:13:02.792Z,15.27
2019-02-27T17:15:35.992Z,15.16
2019-02-27T17:18:03.485Z,15.08
2019-02-27T17:20:32.880Z,14.98
2019-02-27T17:23:07.587Z,14.98
2019-02-27T17:25:33.506Z,14.94
2019-02-27T17:28:02.943Z,14.83
2019-02-27T17:30:36.379Z,14.81
2019-02-27T17:33:05.322Z,14.74
2019-02-27T17:35:34.804Z,14.72
2019-02-27T17:38:04.321Z,14.65
2019-02-27T17:40:36.900Z,14.57
2019-02-27T17:43:06.801Z,14.53
2019-02-27T17:45:36.343Z,14.48
2019-02-27T17:48:05.791Z,14.41
2019-02-27T17:50:35.196Z,14.36
2019-02-27T17:53:04.611Z,14.28
2019-02-27T17:55:34.131Z,14.23
2019-02-27T17:58:03.638Z,13.96
2019-02-27T18:00:36.561Z,13.89
2019-02-27T18:03:06.028Z,13.71
2019-02-27T18:05:35.565Z,13.73
2019-02-27T18:08:05.232Z,13.70
2019-02-27T18:10:37.646Z,13.53
2019-02-27T18:13:06.070Z,13.65
2019-02-27T18:15:35.529Z,13.67
2019-02-27T18:18:07.492Z,13.40
2019-02-27T18:20:36.434Z,13.40
2019-02-27T18:23:05.849Z,13.41
2019-02-27T18:25:35.457Z,13.27
2019-02-27T18:28:04.871Z,13.06
2019-02-27T18:30:34.297Z,13.00
2019-02-27T18:33:03.975Z,12.84
2019-02-27T18:35:33.338Z,12.87
2019-02-27T18:38:02.766Z,12.74
2019-02-27T18:40:32.184Z,12.65
2019-02-27T18:43:01.663Z,12.57
2019-02-27T18:45:31.324Z,12.42
2019-02-27T18:48:00.789Z,12.42
2019-02-27T18:50:30.254Z,12.28
2019-02-27T18:52:59.655Z,12.01
2019-02-27T18:55:30.712Z,11.91
2019-02-27T18:58:00.390Z,12.00
2019-02-27T19:00:29.888Z,11.89
2019-02-27T19:02:59.571Z,11.83
2019-02-27T19:05:29.079Z,11.81
2019-02-27T19:07:58.564Z,11.86
2019-02-27T19:10:28.094Z,11.70
2019-02-27T19:12:59.983Z,11.60
2019-02-27T19:15:28.978Z,11.48
2019-02-27T19:17:58.684Z,11.38
2019-02-27T19:20:29.268Z,11.36
2019-02-27T19:23:00.355Z,11.35
2019-02-27T19:25:34.137Z,11.23
2019-02-27T19:28:01.408Z,11.20
2019-02-27T19:30:30.791Z,11.24
2019-02-27T19:33:01.986Z,11.19
2019-02-27T19:35:31.598Z,11.24
2019-02-27T19:38:01.066Z,11.10
2019-02-27T19:40:31.325Z,10.97
2019-02-27T19:43:02.717Z,10.84
2019-02-27T19:45:32.347Z,10.75
2019-02-27T19:48:01.765Z,10.65
2019-02-27T19:50:31.271Z,10.54
2019-02-27T19:53:05.224Z,10.57
2019-02-27T19:55:31.848Z,10.52
2019-02-27T19:58:01.274Z,10.49
2019-02-27T20:00:35.023Z,10.28
2019-02-27T20:03:02.280Z,10.16
2019-02-27T20:05:31.886Z,10.06
2019-02-27T20:08:02.482Z,9.95
2019-02-27T20:10:33.287Z,9.93
2019-02-27T20:13:03.112Z,9.82
2019-02-27T20:15:32.818Z,9.78
2019-02-27T20:18:07.798Z,9.59
2019-02-27T20:20:33.423Z,9.59
2019-02-27T20:23:02.836Z,9.47
2019-02-27T20:25:32.956Z,9.47
2019-02-27T20:28:02.493Z,9.51
2019-02-27T20:30:32.259Z,9.57
2019-02-27T20:33:02.531Z,9.61
2019-02-27T20:35:32.612Z,9.51
2019-02-27T20:38:02.021Z,9.40
2019-02-27T20:40:34.224Z,9.24
2019-02-27T20:43:03.167Z,9.24
2019-02-27T20:45:32.676Z,9.18
2019-02-27T20:48:02.182Z,9.10
2019-02-27T20:50:35.681Z,9.02
2019-02-27T20:53:05.714Z,9.02
2019-02-27T20:55:35.151Z,9.07
2019-02-27T20:58:04.654Z,9.08
2019-02-27T21:00:36.510Z,8.82
2019-02-27T21:03:05.298Z,8.67
2019-02-27T21:05:34.791Z,8.67
2019-02-27T21:08:04.242Z,8.53
2019-02-27T21:10:33.644Z,8.53
2019-02-27T21:13:03.086Z,8.41
2019-02-27T21:15:33.468Z,8.41
2019-02-27T21:18:03.013Z,8.38
2019-02-27T21:20:33.293Z,8.28
2019-02-27T21:23:02.900Z,8.34
2019-02-27T21:25:32.419Z,8.22
2019-02-27T21:28:06.585Z,8.22
2019-02-27T21:30:33.373Z,8.30
2019-02-27T21:33:02.792Z,8.29
2019-02-27T21:35:32.390Z,8.28
2019-02-27T21:38:02.004Z,8.13
2019-02-27T21:40:33.454Z,8.06
2019-02-27T21:43:02.542Z,8.06
2019-02-27T21:45:32.050Z,8.02
2019-02-27T21:48:01.443Z,8.05
2019-02-27T21:50:30.870Z,8.11
2019-02-27T21:53:00.267Z,7.96
2019-02-27T21:55:29.911Z,7.85
2019-02-27T21:57:59.286Z,7.86
2019-02-27T22:00:29.610Z,7.79
2019-02-27T22:03:04.066Z,7.75
2019-02-27T22:05:30.475Z,7.70
2019-02-27T22:07:59.850Z,7.69
2019-02-27T22:10:29.287Z,7.81
2019-02-27T22:12:58.770Z,7.77
2019-02-27T22:15:28.991Z,7.74
2019-02-27T22:17:58.405Z,7.50
2019-02-27T22:20:27.781Z,7.52
2019-02-27T22:22:57.195Z,7.46
2019-02-27T22:25:30.218Z,7.44
2019-02-27T22:27:58.454Z,7.42
2019-02-27T22:30:27.981Z,7.37
2019-02-27T22:32:57.489Z,7.28
2019-02-27T22:35:26.865Z,7.25
2019-02-27T22:37:56.250Z,7.24
2019-02-27T22:40:25.696Z,7.09
2019-02-27T22:42:55.083Z,7.09
2019-02-27T22:45:24.499Z,6.90
2019-02-27T22:47:54.723Z,6.93
2019-02-27T22:50:24.288Z,6.88
2019-02-27T22:52:54.639Z,6.82
2019-02-27T22:55:24.861Z,6.77
2019-02-27T22:57:55.055Z,6.69
2019-02-27T23:00:56.733Z,6.80
2019-02-27T23:03:27.354Z,6.80
2019-02-27T23:05:56.824Z,6.92
2019-02-27T23:08:26.230Z,6.93
2019-02-27T23:10:55.685Z,6.99
2019-02-27T23:13:25.118Z,6.92
2019-02-27T23:15:58.188Z,6.95
2019-02-27T23:18:25.787Z,6.70
2019-02-27T23:20:56.077Z,6.70
2019-02-27T23:23:25.560Z,6.69
2019-02-27T23:25:54.961Z,6.69
2019-02-27T23:28:24.354Z,6.59
2019-02-27T23:30:53.774Z,6.62
2019-02-27T23:33:24.640Z,6.54
2019-02-27T23:35:54.252Z,6.53
2019-02-27T23:38:23.627Z,6.45
2019-02-27T23:40:53.027Z,6.34
2019-02-27T23:43:22.440Z,6.34
2019-02-27T23:45:51.873Z,6.36
2019-02-27T23:48:21.493Z,6.50
2019-02-27T23:50:50.987Z,6.47
2019-02-27T23:53:20.515Z,6.37
2019-02-27T23:55:49.959Z,6.41
2019-02-27T23:58:19.570Z,6.33
